createdAt,value
2018-02-05T00:02:13.359Z,15.27
2018-02-05T00:04:40.880Z,14.80
2018-02-05T00:07:08.432Z,13.27
2018-02-05T00:09:37.158Z,16.43
2018-02-05T00:12:04.700Z,13.60
2018-02-05T00:14:32.987Z,16.27
2018-02-05T00:17:01.309Z,18.50
2018-02-05T00:19:28.823Z,14.30
2018-02-05T00:21:56.359Z,13.60
2018-02-05T00:24:23.877Z,14.10
2018-02-05T00:26:51.635Z,16.87
2018-02-05T00:29:19.144Z,14.90
2018-02-05T00:31:47.457Z,18.10
2018-02-05T00:34:14.980Z,15.30
2018-02-05T00:36:42.527Z,14.73
2018-02-05T00:39:10.045Z,13.90
2018-02-05T00:41:37.587Z,14.37
2018-02-05T00:44:05.179Z,13.40
2018-02-05T00:46:32.741Z,14.27
2018-02-05T00:49:00.264Z,15.97
2018-02-05T00:51:27.815Z,15.20
2018-02-05T00:53:56.106Z,14.83
2018-02-05T00:56:24.416Z,14.80
2018-02-05T00:58:51.935Z,12.17
2018-02-05T01:01:19.479Z,17.20
2018-02-05T01:03:47.763Z,16.17
2018-02-05T01:06:15.311Z,15.43
2018-02-05T01:08:42.828Z,14.93
2018-02-05T01:11:10.382Z,13.50
2018-02-05T01:13:37.894Z,14.50
2018-02-05T01:16:05.440Z,15.20
2018-02-05T01:18:32.951Z,12.77
2018-02-05T01:21:00.491Z,13.93
2018-02-05T01:23:28.044Z,18.10
2018-02-05T01:25:55.563Z,15.80
2018-02-05T01:28:23.103Z,13.60
2018-02-05T01:30:50.660Z,13.23
2018-02-05T01:33:18.204Z,13.23
2018-02-05T01:35:45.715Z,13.57
2018-02-05T01:38:13.257Z,12.43
2018-02-05T01:40:40.772Z,14.27
2018-02-05T01:43:08.335Z,13.53
2018-02-05T01:45:35.846Z,12.67
2018-02-05T01:48:04.157Z,17.23
2018-02-05T01:50:31.674Z,11.53
2018-02-05T01:52:59.211Z,11.60
2018-02-05T01:55:26.725Z,12.17
2018-02-05T01:57:54.261Z,13.80
2018-02-05T02:00:21.788Z,10.30
2018-02-05T02:02:49.326Z,15.43
2018-02-05T02:05:16.838Z,15.17
2018-02-05T02:07:45.153Z,12.30
2018-02-05T02:10:12.667Z,12.37
2018-02-05T02:12:40.781Z,15.03
2018-02-05T02:15:09.061Z,12.03
2018-02-05T02:17:36.631Z,14.93
2018-02-05T02:20:04.153Z,11.23
2018-02-05T02:22:31.689Z,12.17
2018-02-05T02:24:59.972Z,16.50
2018-02-05T02:27:27.516Z,10.43
2018-02-05T02:29:55.027Z,11.87
2018-02-05T02:32:23.331Z,15.03
2018-02-05T02:34:50.851Z,14.27
2018-02-05T02:37:18.391Z,13.63
2018-02-05T02:39:46.050Z,12.90
2018-02-05T02:42:13.565Z,12.40
2018-02-05T02:44:41.108Z,11.30
2018-02-05T02:47:08.624Z,13.87
2018-02-05T02:49:36.176Z,11.97
2018-02-05T02:52:03.687Z,13.20
2018-02-05T02:54:31.990Z,12.57
2018-02-05T02:57:00.498Z,12.63
2018-02-05T02:59:28.039Z,12.63
2018-02-05T03:01:55.555Z,13.50
2018-02-05T03:04:23.096Z,14.40
2018-02-05T03:06:51.388Z,12.50
2018-02-05T03:09:19.703Z,12.73
2018-02-05T03:11:47.215Z,11.37
2018-02-05T03:14:14.759Z,12.70
2018-02-05T03:16:42.279Z,12.90
2018-02-05T03:19:09.819Z,11.40
2018-02-05T03:21:37.328Z,13.07
2018-02-05T03:24:05.639Z,11.00
2018-02-05T03:26:33.194Z,13.00
2018-02-05T03:29:01.511Z,9.97
2018-02-05T03:31:29.059Z,9.90
2018-02-05T03:33:56.603Z,11.70
2018-02-05T03:36:24.111Z,12.00
2018-02-05T03:38:51.659Z,11.03
2018-02-05T03:41:19.184Z,10.27
2018-02-05T03:43:46.721Z,14.17
2018-02-05T03:46:14.236Z,14.00
2018-02-05T03:48:41.767Z,9.70
2018-02-05T03:51:09.277Z,11.70
2018-02-05T03:53:36.815Z,12.63
2018-02-05T03:56:04.339Z,13.40
2018-02-05T03:58:31.880Z,12.10
2018-02-05T04:00:59.395Z,15.47
2018-02-05T04:03:26.935Z,12.23
2018-02-05T04:05:54.446Z,12.60
2018-02-05T04:08:21.987Z,14.00
2018-02-05T04:10:49.496Z,11.40
2018-02-05T04:13:17.046Z,11.80
2018-02-05T04:15:44.560Z,11.70
2018-02-05T04:18:12.103Z,15.03
2018-02-05T04:20:39.627Z,13.90
2018-02-05T04:23:07.165Z,13.53
2018-02-05T04:25:35.458Z,12.27
2018-02-05T04:28:03.768Z,14.77
2018-02-05T04:30:31.796Z,11.87
2018-02-05T04:32:59.342Z,13.00
2018-02-05T04:35:26.860Z,14.33
2018-02-05T04:37:55.179Z,15.40
2018-02-05T04:40:22.703Z,12.33
2018-02-05T04:42:50.219Z,12.93
2018-02-05T04:45:17.767Z,12.27
2018-02-05T04:47:45.279Z,13.23
2018-02-05T04:50:12.815Z,13.20
2018-02-05T04:52:41.087Z,11.73
2018-02-05T04:55:08.635Z,12.93
2018-02-05T04:57:36.150Z,12.13
2018-02-05T05:00:04.492Z,12.33
2018-02-05T05:02:32.006Z,12.73
2018-02-05T05:05:00.328Z,11.60
2018-02-05T05:07:27.852Z,15.97
2018-02-05T05:09:55.399Z,12.67
2018-02-05T05:12:22.920Z,13.83
2018-02-05T05:14:50.470Z,12.77
2018-02-05T05:17:17.978Z,14.50
2018-02-05T05:19:45.524Z,16.03
2018-02-05T05:22:13.035Z,12.77
2018-02-05T05:24:40.591Z,11.40
2018-02-05T05:27:08.103Z,13.20
2018-02-05T05:29:35.643Z,13.37
2018-02-05T05:32:03.160Z,12.13
2018-02-05T05:34:30.708Z,14.53
2018-02-05T05:36:58.234Z,15.30
2018-02-05T05:39:26.552Z,18.43
2018-02-05T05:41:54.055Z,16.20
2018-02-05T05:44:21.797Z,12.23
2018-02-05T05:46:49.311Z,13.30
2018-02-05T05:49:16.854Z,16.50
2018-02-05T05:51:44.368Z,11.77
2018-02-05T05:54:11.900Z,17.27
2018-02-05T05:56:39.420Z,12.87
2018-02-05T05:59:06.972Z,14.23
2018-02-05T06:01:34.490Z,13.90
2018-02-05T06:04:02.042Z,15.57
2018-02-05T06:06:29.546Z,14.83
2018-02-05T06:08:57.083Z,15.13
2018-02-05T06:11:25.373Z,17.27
2018-02-05T06:13:53.686Z,14.47
2018-02-05T06:16:21.203Z,12.70
2018-02-05T06:18:48.753Z,14.53
2018-02-05T06:21:16.268Z,13.57
2018-02-05T06:23:43.812Z,17.90
2018-02-05T06:26:11.327Z,12.60
2018-02-05T06:28:39.636Z,13.17
2018-02-05T06:31:07.168Z,14.80
2018-02-05T06:33:34.715Z,12.00
2018-02-05T06:36:02.244Z,13.77
2018-02-05T06:38:29.797Z,13.83
2018-02-05T06:40:57.312Z,15.20
2018-02-05T06:43:24.865Z,14.47
2018-02-05T06:45:52.387Z,13.20
2018-02-05T06:48:19.935Z,13.90
2018-02-05T06:50:59.411Z,13.60
2018-02-05T06:56:27.056Z,18.60
2018-02-05T06:58:55.371Z,14.33
2018-02-05T07:01:22.897Z,15.93
2018-02-05T07:03:50.438Z,12.07
2018-02-05T07:06:17.959Z,12.67
2018-02-05T07:08:46.268Z,16.67
2018-02-05T07:11:13.772Z,12.57
2018-02-05T07:13:41.309Z,13.77
2018-02-05T07:16:08.811Z,13.43
2018-02-05T07:18:36.351Z,13.30
2018-02-05T07:21:03.859Z,11.23
2018-02-05T07:23:31.724Z,10.83
2018-02-05T07:25:59.231Z,16.97
2018-02-05T07:28:26.771Z,13.33
2018-02-05T07:30:54.283Z,14.63
2018-02-05T07:33:21.834Z,16.23
2018-02-05T07:35:49.344Z,14.17
2018-02-05T07:38:17.659Z,14.03
2018-02-05T07:40:45.207Z,14.73
2018-02-05T07:43:13.518Z,13.60
2018-02-05T07:45:41.035Z,14.75
2018-02-05T07:48:08.573Z,15.73
2018-02-05T07:50:36.080Z,13.93
2018-02-05T07:53:03.617Z,16.10
2018-02-05T07:55:31.131Z,17.80
2018-02-05T07:57:58.697Z,15.43
2018-02-05T08:00:26.243Z,13.17
2018-02-05T08:02:53.753Z,12.00
2018-02-05T08:05:21.299Z,10.50
2018-02-05T08:07:48.804Z,14.07
2018-02-05T08:10:16.337Z,9.90
2018-02-05T08:12:43.975Z,9.57
2018-02-05T08:15:11.498Z,13.80
2018-02-05T08:17:39.017Z,12.00
2018-02-05T08:20:07.344Z,14.53
2018-02-05T08:22:34.843Z,11.57
2018-02-05T08:25:02.376Z,9.60
2018-02-05T08:27:29.886Z,11.80
2018-02-05T08:29:57.423Z,11.50
2018-02-05T08:32:24.935Z,10.90
2018-02-05T08:34:52.476Z,11.63
2018-02-05T08:37:19.982Z,9.10
2018-02-05T08:39:47.524Z,11.07
2018-02-05T08:42:15.042Z,10.53
2018-02-05T08:44:43.347Z,9.53
2018-02-05T08:47:10.856Z,10.37
2018-02-05T08:49:38.399Z,11.50
2018-02-05T08:52:05.910Z,12.53
2018-02-05T08:54:33.459Z,10.20
2018-02-05T08:57:00.981Z,11.50
2018-02-05T08:59:29.290Z,12.20
2018-02-05T09:01:57.563Z,10.67
2018-02-05T09:04:25.914Z,11.87
2018-02-05T09:06:53.414Z,13.50
2018-02-05T09:09:20.965Z,10.60
2018-02-05T09:11:48.529Z,11.80
2018-02-05T09:14:16.066Z,9.63
2018-02-05T09:16:43.574Z,9.30
2018-02-05T09:19:11.115Z,10.40
2018-02-05T09:21:38.623Z,8.97
2018-02-05T09:24:06.167Z,8.97
2018-02-05T09:26:33.668Z,9.10
2018-02-05T09:29:01.206Z,9.57
2018-02-05T09:31:28.714Z,10.80
2018-02-05T09:33:56.282Z,11.20
2018-02-05T09:36:23.790Z,11.00
2018-02-05T09:38:51.338Z,10.70
2018-02-05T09:41:18.848Z,11.23
2018-02-05T09:43:46.429Z,13.27
2018-02-05T09:46:13.946Z,9.80
2018-02-05T09:48:41.487Z,10.53
2018-02-05T09:51:08.996Z,15.83
2018-02-05T09:53:36.535Z,12.67
2018-02-05T09:56:04.052Z,12.30
2018-02-05T09:58:31.595Z,13.03
2018-02-05T10:00:59.098Z,11.47
2018-02-05T10:03:26.641Z,15.30
2018-02-05T10:05:54.147Z,10.57
2018-02-05T10:08:22.471Z,11.73
2018-02-05T10:10:49.979Z,11.27
2018-02-05T10:13:17.516Z,7.00
2018-02-05T10:15:45.027Z,13.00
2018-02-05T10:18:12.575Z,14.93
2018-02-05T10:20:40.116Z,10.17
2018-02-05T10:23:07.655Z,11.50
2018-02-05T10:25:35.163Z,10.70
2018-02-05T10:28:02.695Z,7.37
2018-02-05T10:30:30.213Z,10.43
2018-02-05T10:32:57.757Z,13.47
2018-02-05T10:35:26.052Z,14.73
2018-02-05T10:37:53.591Z,11.60
2018-02-05T10:40:21.097Z,10.40
2018-02-05T10:42:49.403Z,8.10
2018-02-05T10:45:16.923Z,10.20
2018-02-05T10:47:44.462Z,7.70
2018-02-05T10:50:11.974Z,12.07
2018-02-05T10:52:39.526Z,13.20
2018-02-05T10:55:07.040Z,7.20
2018-02-05T10:57:35.347Z,10.90
2018-02-05T11:00:02.857Z,12.00
2018-02-05T11:02:30.400Z,9.23
2018-02-05T11:04:57.911Z,10.43
2018-02-05T11:07:25.446Z,16.07
2018-02-05T11:09:52.959Z,10.70
2018-02-05T11:12:20.503Z,10.10
2018-02-05T11:14:48.014Z,10.20
2018-02-05T11:17:15.559Z,17.43
2018-02-05T11:19:43.063Z,4.97
2018-02-05T11:22:10.604Z,12.07
2018-02-05T11:24:38.108Z,10.73
2018-02-05T11:27:05.680Z,8.70
2018-02-05T11:29:33.183Z,12.50
2018-02-05T11:32:00.729Z,7.83
2018-02-05T11:34:29.016Z,11.13
2018-02-05T11:36:57.328Z,12.63
2018-02-05T11:39:24.848Z,11.67
2018-02-05T11:41:52.379Z,8.70
2018-02-05T11:44:19.883Z,13.60
2018-02-05T11:46:47.431Z,10.40
2018-02-05T11:49:15.005Z,9.73
2018-02-05T11:51:42.570Z,9.90
2018-02-05T11:54:10.077Z,7.67
2018-02-05T11:56:37.634Z,11.03
2018-02-05T11:59:05.160Z,11.07
2018-02-05T12:01:33.472Z,10.07
2018-02-05T12:04:00.982Z,9.30
2018-02-05T12:06:28.523Z,12.97
2018-02-05T12:08:56.034Z,8.63
2018-02-05T12:11:23.579Z,7.07
2018-02-05T12:13:51.086Z,8.70
2018-02-05T12:16:18.659Z,11.67
2018-02-05T12:18:46.168Z,10.90
2018-02-05T12:21:13.712Z,7.87
2018-02-05T12:23:41.228Z,8.20
2018-02-05T12:26:08.763Z,10.80
2018-02-05T12:28:37.038Z,9.57
2018-02-05T12:31:04.585Z,8.30
2018-02-05T12:33:32.095Z,8.73
2018-02-05T12:35:59.705Z,11.57
2018-02-05T12:38:27.955Z,13.20
2018-02-05T12:40:56.262Z,7.60
2018-02-05T12:43:23.763Z,7.00
2018-02-05T12:45:51.320Z,6.43
2018-02-05T12:48:18.835Z,8.37
2018-02-05T12:50:46.415Z,10.00
2018-02-05T12:53:13.929Z,7.97
2018-02-05T12:55:41.487Z,8.10
2018-02-05T12:58:09.031Z,8.43
2018-02-05T13:00:36.576Z,4.57
2018-02-05T13:03:04.884Z,5.10
2018-02-05T13:05:32.420Z,4.13
2018-02-05T13:07:59.919Z,7.87
2018-02-05T13:10:27.504Z,4.13
2018-02-05T13:12:55.022Z,5.00
2018-02-05T13:15:22.567Z,6.07
2018-02-05T13:17:50.104Z,3.13
2018-02-05T13:20:17.652Z,7.50
2018-02-05T13:22:45.167Z,3.60
2018-02-05T13:25:12.743Z,5.20
2018-02-05T13:27:40.275Z,4.57
2018-02-05T13:30:07.813Z,7.87
2018-02-05T13:32:36.085Z,4.40
2018-02-05T13:35:03.639Z,5.83
2018-02-05T13:37:31.211Z,6.73
2018-02-05T13:39:58.762Z,8.47
2018-02-05T13:42:26.289Z,4.40
2018-02-05T13:44:54.563Z,4.67
2018-02-05T13:47:22.117Z,7.63
2018-02-05T13:49:49.628Z,4.30
2018-02-05T13:52:17.177Z,5.33
2018-02-05T13:54:44.681Z,5.50
2018-02-05T13:57:12.231Z,7.13
2018-02-05T13:59:40.549Z,5.20
2018-02-05T14:02:08.071Z,6.83
2018-02-05T14:04:35.603Z,8.73
2018-02-05T14:07:03.148Z,5.67
2018-02-05T14:09:31.423Z,5.40
2018-02-05T14:11:59.719Z,6.10
2018-02-05T14:14:27.998Z,7.93
2018-02-05T14:16:56.314Z,6.80
2018-02-05T14:19:23.835Z,3.87
2018-02-05T14:21:51.373Z,6.10
2018-02-05T14:24:18.888Z,6.60
2018-02-05T14:26:46.508Z,8.40
2018-02-05T14:29:14.048Z,7.83
2018-02-05T14:31:41.575Z,10.20
2018-02-05T14:34:09.151Z,5.97
2018-02-05T14:36:36.667Z,5.40
2018-02-05T14:39:04.218Z,6.97
2018-02-05T14:41:31.759Z,5.73
2018-02-05T14:43:59.310Z,5.87
2018-02-05T14:46:26.820Z,6.40
2018-02-05T14:48:54.364Z,7.37
2018-02-05T14:51:21.883Z,5.63
2018-02-05T14:53:49.463Z,7.87
2018-02-05T14:56:16.979Z,8.20
2018-02-05T14:58:44.516Z,5.57
2018-02-05T15:01:12.025Z,9.27
2018-02-05T15:03:39.532Z,7.33
2018-02-05T15:06:07.075Z,9.57
2018-02-05T15:08:34.598Z,6.60
2018-02-05T15:11:02.143Z,11.17
2018-02-05T15:13:29.696Z,10.30
2018-02-05T15:15:57.246Z,10.23
2018-02-05T15:18:24.755Z,9.60
2018-02-05T15:20:52.316Z,7.10
2018-02-05T15:23:19.892Z,9.10
2018-02-05T15:25:47.435Z,11.83
2018-02-05T15:28:14.968Z,8.50
2018-02-05T15:30:42.523Z,10.43
2018-02-05T15:33:10.036Z,9.60
2018-02-05T15:35:37.577Z,8.80
2018-02-05T15:38:05.087Z,10.97
2018-02-05T15:40:32.641Z,10.33
2018-02-05T15:43:00.162Z,12.50
2018-02-05T15:45:27.710Z,10.93
2018-02-05T15:47:55.230Z,10.83
2018-02-05T15:50:22.793Z,12.57
2018-02-05T15:52:50.321Z,10.83
2018-02-05T15:55:17.859Z,9.07
2018-02-05T15:57:45.380Z,10.63
2018-02-05T16:00:12.924Z,11.87
2018-02-05T16:02:41.203Z,9.13
2018-02-05T16:05:08.771Z,12.63
2018-02-05T16:07:36.295Z,12.50
2018-02-05T16:10:03.851Z,9.80
2018-02-05T16:12:31.373Z,12.33
2018-02-05T16:14:58.931Z,9.03
2018-02-05T16:17:26.445Z,7.67
2018-02-05T16:19:54.762Z,10.43
2018-02-05T16:22:22.267Z,9.27
2018-02-05T16:24:49.810Z,9.57
2018-02-05T16:27:17.644Z,9.17
2018-02-05T16:29:45.256Z,16.30
2018-02-05T16:32:12.780Z,10.07
2018-02-05T16:34:40.842Z,14.97
2018-02-05T16:37:08.347Z,11.87
2018-02-05T16:39:36.676Z,8.33
2018-02-05T16:42:04.938Z,12.03
2018-02-05T16:44:32.498Z,12.03
2018-02-05T16:47:00.006Z,9.23
2018-02-05T16:49:27.563Z,13.40
2018-02-05T16:51:55.071Z,14.13
2018-02-05T16:54:22.593Z,11.47
2018-02-05T16:56:50.123Z,9.03
2018-02-05T16:59:17.651Z,10.70
2018-02-05T17:01:45.197Z,11.50
2018-02-05T17:04:12.752Z,12.40
2018-02-05T17:06:40.304Z,12.73
2018-02-05T17:09:07.866Z,10.63
2018-02-05T17:11:35.377Z,11.03
2018-02-05T17:14:03.045Z,12.47
2018-02-05T17:16:30.592Z,8.90
2018-02-05T17:18:58.111Z,9.10
2018-02-05T17:21:25.915Z,9.93
2018-02-05T17:23:53.425Z,9.87
2018-02-05T17:26:20.959Z,10.30
2018-02-05T17:28:48.463Z,7.43
2018-02-05T17:31:16.048Z,10.10
2018-02-05T17:33:43.586Z,14.93
2018-02-05T17:36:11.188Z,12.43
2018-02-05T17:38:38.759Z,10.83
2018-02-05T17:41:06.295Z,13.23
2018-02-05T17:43:33.902Z,10.67
2018-02-05T17:46:01.542Z,12.20
2018-02-05T17:48:29.131Z,12.60
2018-02-05T17:50:56.678Z,10.00
2018-02-05T17:53:24.199Z,12.17
2018-02-05T17:55:51.758Z,14.17
2018-02-05T17:58:19.275Z,11.00
2018-02-05T18:00:47.589Z,14.20
2018-02-05T18:03:15.119Z,15.23
2018-02-05T18:05:42.667Z,13.17
2018-02-05T18:08:10.183Z,15.83
2018-02-05T18:10:37.718Z,11.00
2018-02-05T18:13:05.952Z,15.67
2018-02-05T18:15:33.496Z,14.87
2018-02-05T18:18:01.833Z,17.73
2018-02-05T18:20:29.371Z,16.83
2018-02-05T18:22:56.880Z,14.80
2018-02-05T18:25:24.417Z,15.77
2018-02-05T18:27:52.740Z,15.30
2018-02-05T18:30:20.407Z,16.07
2018-02-05T18:32:48.672Z,16.30
2018-02-05T18:35:16.996Z,16.50
2018-02-05T18:37:44.511Z,18.07
2018-02-05T18:40:12.071Z,17.77
2018-02-05T18:42:39.584Z,14.17
2018-02-05T18:45:07.903Z,17.73
2018-02-05T18:47:35.420Z,17.90
2018-02-05T18:50:02.976Z,14.37
2018-02-05T18:52:30.489Z,19.60
2018-02-05T18:54:58.063Z,30.83
2018-02-05T18:57:25.579Z,24.70
2018-02-05T18:59:53.139Z,17.70
2018-02-05T19:02:23.032Z,22.30
2018-02-05T19:04:50.603Z,17.77
2018-02-05T19:07:18.896Z,19.43
2018-02-05T19:09:46.431Z,19.33
2018-02-05T19:12:13.956Z,19.53
2018-02-05T19:14:41.502Z,21.67
2018-02-05T19:17:09.039Z,18.43
2018-02-05T19:19:36.583Z,22.07
2018-02-05T19:22:04.136Z,24.60
2018-02-05T19:24:31.712Z,22.97
2018-02-05T19:26:59.243Z,23.00
2018-02-05T19:29:26.795Z,22.10
2018-02-05T19:31:54.323Z,27.40
2018-02-05T19:34:22.659Z,24.87
2018-02-05T19:36:50.178Z,19.47
2018-02-05T19:39:18.520Z,20.17
2018-02-05T19:41:46.037Z,15.50
2018-02-05T19:44:13.594Z,21.00
2018-02-05T19:46:41.160Z,23.10
2018-02-05T19:49:08.725Z,19.10
2018-02-05T19:51:36.282Z,25.33
2018-02-05T19:54:03.823Z,19.80
2018-02-05T19:56:31.340Z,19.50
2018-02-05T19:58:58.884Z,26.23
2018-02-05T20:01:26.401Z,23.57
2018-02-05T20:03:53.956Z,22.83
2018-02-05T20:06:21.476Z,25.57
2018-02-05T20:08:49.065Z,29.10
2018-02-05T20:11:16.620Z,23.53
2018-02-05T20:13:44.163Z,28.17
2018-02-05T20:16:11.740Z,28.53
2018-02-05T20:18:40.057Z,29.27
2018-02-05T20:21:07.626Z,24.30
2018-02-05T20:23:35.168Z,22.87
2018-02-05T20:26:02.711Z,22.27
2018-02-05T20:28:30.267Z,31.63
2018-02-05T20:30:57.790Z,24.70
2018-02-05T20:33:25.316Z,25.83
2018-02-05T20:35:52.869Z,29.07
2018-02-05T20:38:20.389Z,25.63
2018-02-05T20:40:47.962Z,27.30
2018-02-05T20:43:15.483Z,24.17
2018-02-05T20:45:43.027Z,24.80
2018-02-05T20:48:10.571Z,28.53
2018-02-05T20:50:38.115Z,28.43
2018-02-05T20:53:05.635Z,25.03
2018-02-05T20:55:33.196Z,25.07
2018-02-05T20:58:00.728Z,24.60
2018-02-05T21:00:28.279Z,26.73
2018-02-05T21:02:55.805Z,22.77
2018-02-05T21:05:23.414Z,29.83
2018-02-05T21:07:51.003Z,25.33
2018-02-05T21:10:18.553Z,33.33
2018-02-05T21:12:46.860Z,24.87
2018-02-05T21:15:15.436Z,31.57
2018-02-05T21:17:43.728Z,26.57
2018-02-05T21:20:12.413Z,22.10
2018-02-05T21:22:39.935Z,33.70
2018-02-05T21:25:07.483Z,26.27
2018-02-05T21:27:35.020Z,26.80
2018-02-05T21:30:02.580Z,25.17
2018-02-05T21:32:30.137Z,22.03
2018-02-05T21:34:57.689Z,30.37
2018-02-05T21:37:25.210Z,34.10
2018-02-05T21:39:52.821Z,24.83
2018-02-05T21:42:20.303Z,33.10
2018-02-05T21:44:47.872Z,28.93
2018-02-05T21:47:15.383Z,29.80
2018-02-05T21:49:43.521Z,28.20
2018-02-05T21:52:11.097Z,25.63
2018-02-05T21:54:38.673Z,29.93
2018-02-05T21:57:07.735Z,30.13
2018-02-05T21:59:35.309Z,30.70
2018-02-05T22:02:02.820Z,31.50
2018-02-05T22:04:30.371Z,34.30
2018-02-05T22:06:57.935Z,30.10
2018-02-05T22:09:25.485Z,28.50
2018-02-05T22:11:53.020Z,29.10
2018-02-05T22:14:20.575Z,35.43
2018-02-05T22:16:48.850Z,25.27
2018-02-05T22:19:17.168Z,33.10
2018-02-05T22:21:44.688Z,29.03
2018-02-05T22:24:12.247Z,32.83
2018-02-05T22:26:39.773Z,25.87
2018-02-05T22:29:07.367Z,28.60
2018-02-05T22:31:34.863Z,25.07
2018-02-05T22:34:02.465Z,30.80
2018-02-05T22:36:29.955Z,27.43
2018-02-05T22:38:57.495Z,30.10
2018-02-05T22:41:25.033Z,27.87
2018-02-05T22:43:52.591Z,30.20
2018-02-05T22:46:20.103Z,31.63
2018-02-05T22:48:47.662Z,35.23
2018-02-05T22:51:15.241Z,31.47
2018-02-05T22:53:42.791Z,28.53
2018-02-05T22:56:10.306Z,32.40
2018-02-05T22:58:37.910Z,26.10
2018-02-05T23:01:05.404Z,30.63
2018-02-05T23:03:32.958Z,26.73
2018-02-05T23:06:00.492Z,28.47
2018-02-05T23:08:28.047Z,27.77
2018-02-05T23:10:56.335Z,29.93
2018-02-05T23:13:23.888Z,29.43
2018-02-05T23:15:51.412Z,32.20
2018-02-05T23:18:18.968Z,26.17
2018-02-05T23:20:46.503Z,39.10
2018-02-05T23:23:14.048Z,29.83
2018-02-05T23:25:42.366Z,27.87
2018-02-05T23:28:09.926Z,32.77
2018-02-05T23:30:37.451Z,33.13
2018-02-05T23:33:05.004Z,28.50
2018-02-05T23:35:32.528Z,35.23
2018-02-05T23:38:00.071Z,35.43
2018-02-05T23:40:27.592Z,35.37
2018-02-05T23:42:55.139Z,25.50
2018-02-05T23:45:22.647Z,34.80
2018-02-05T23:47:50.199Z,27.07
2018-02-05T23:50:17.714Z,32.63
2018-02-05T23:52:45.255Z,33.10
2018-02-05T23:55:12.783Z,25.83
2018-02-05T23:57:41.102Z,29.57
